Terminal Aerodrome Forecast
Issued by NWS

Home | Current Version | Previous Version | Text Only | Print | Product List | Glossary On
Versions: 1 2 3 4 5 6 7 8 9 10 11 12 13 14 15 16 17
000
FTUS45 KGJT 191736
TAFMTJ
TAF
KMTJ 191736Z 1918/2018 22012G21KT P6SM SKC
     FM192000 23019G29KT P6SM FEW150 FEW200
     FM200100 24013KT P6SM FEW130 FEW150
     FM200300 30008KT P6SM FEW120 FEW150
     FM200500 18008KT P6SM FEW120 FEW150
     FM201200 VRB05KT P6SM FEW120 FEW250=

USA.gov is the U.S. government's official web portal to all federal, state and local government web resources and services.